Time;durP1;ratioP1;P1;durP2;ratioP2;P2;SDS_P1;SDS_P2;PMS_P1;PMS_P2;Temp;Humidity;BMP_temperature;BMP_pressure;BME280_temperature;BME280_humidity;BME280_pressure;Samples;Min_cycle;Max_cycle;Signal;HPM_P1;HPM_P2
2022/12/05 00:05:29;;;;;;;47.60;30.20;;;9.00;77.50;;;;;;20923044;28;20052;-60
2022/12/05 00:15:35;;;;;;;47.08;29.60;;;8.90;76.80;;;;;;20920822;28;20386;-60
2022/12/05 00:25:39;;;;;;;56.85;33.47;;;8.90;77.10;;;;;;20920415;28;20128;-61
2022/12/05 00:35:41;;;;;;;55.15;33.50;;;8.80;77.10;;;;;;20919799;28;20048;-60
2022/12/05 00:45:43;;;;;;;54.42;32.15;;;8.80;77.40;;;;;;20919184;28;20045;-61
2022/12/05 00:55:45;;;;;;;53.35;32.85;;;8.70;77.60;;;;;;20918862;28;20477;-60
2022/12/05 01:05:47;;;;;;;50.10;30.42;;;8.70;77.70;;;;;;20899639;28;20053;-60
2022/12/05 01:15:49;;;;;;;49.95;30.60;;;8.70;77.40;;;;;;20922268;28;20045;-59
2022/12/05 01:25:52;;;;;;;41.60;25.50;;;8.70;77.60;;;;;;20918131;28;20084;-61
2022/12/05 01:35:54;;;;;;;37.63;24.30;;;8.70;77.60;;;;;;20917916;28;20061;-61
2022/12/05 01:45:58;;;;;;;32.28;21.17;;;8.70;77.40;;;;;;20921399;28;20049;-60
2022/12/05 01:56:00;;;;;;;35.38;21.42;;;8.70;77.60;;;;;;20917597;28;20103;-62
2022/12/05 02:06:04;;;;;;;29.13;18.85;;;8.60;77.50;;;;;;20896082;28;20049;-59
2022/12/05 02:16:15;;;;;;;33.00;19.92;;;8.60;77.40;;;;;;20915510;28;20053;-60
2022/12/05 02:26:44;;;;;;;28.65;19.95;;;8.60;77.70;;;;;;20925326;28;20057;-60
2022/12/05 02:36:54;;;;;;;29.83;20.35;;;8.60;77.50;;;;;;20912084;28;20106;-61
2022/12/05 02:46:57;;;;;;;31.63;20.83;;;8.50;77.50;;;;;;20926231;28;20048;-60
2022/12/05 02:57:00;;;;;;;29.27;17.20;;;8.40;77.60;;;;;;20927380;28;20049;-60
2022/12/05 03:07:07;;;;;;;29.02;18.65;;;8.60;77.50;;;;;;20926205;28;20049;-57
2022/12/05 03:17:14;;;;;;;35.47;23.77;;;8.60;77.70;;;;;;20925923;28;20052;-58
2022/12/05 03:27:36;;;;;;;40.03;25.13;;;8.50;77.50;;;;;;20925308;28;20110;-58
2022/12/05 03:38:08;;;;;;;37.67;23.15;;;8.30;76.50;;;;;;20923817;28;20115;-58
2022/12/05 03:48:51;;;;;;;35.63;26.00;;;8.10;76.30;;;;;;20923666;28;20045;-59
2022/12/05 03:59:04;;;;;;;37.97;24.48;;;7.90;76.60;;;;;;20667410;28;20410;-60
2022/12/05 04:09:09;;;;;;;36.40;21.90;;;7.80;76.90;;;;;;20667325;28;20069;-59
2022/12/05 04:19:21;;;;;;;33.90;21.93;;;7.80;76.90;;;;;;20665915;28;20090;-60
2022/12/05 04:29:36;;;;;;;34.53;23.70;;;7.80;78.10;;;;;;20802588;28;20064;-60
2022/12/05 04:39:56;;;;;;;36.80;24.63;;;7.80;78.80;;;;;;20918004;28;20069;-58
2022/12/05 04:50:01;;;;;;;28.45;17.60;;;7.90;79.50;;;;;;20917767;28;20405;-60
2022/12/05 05:00:04;;;;;;;;;;;8.00;79.70;;;;;;20917941;28;20099;-59
2022/12/05 05:10:10;;;;;;;27.90;18.58;;;8.20;78.80;;;;;;20916238;28;19991;-59
2022/12/05 05:20:31;;;;;;;26.42;17.20;;;8.30;78.60;;;;;;20916429;28;20485;-59
2022/12/05 05:30:52;;;;;;;23.75;16.60;;;8.30;78.20;;;;;;20914799;28;20057;-59
2022/12/05 05:41:19;;;;;;;24.27;15.63;;;8.40;77.90;;;;;;20916292;28;20064;-59
2022/12/05 05:51:40;;;;;;;22.10;13.38;;;8.40;78.30;;;;;;20915127;28;20416;-60
2022/12/05 06:01:48;;;;;;;20.33;14.05;;;8.40;77.70;;;;;;20914210;28;20127;-59
2022/12/05 06:11:55;;;;;;;22.75;13.70;;;8.60;77.30;;;;;;20912560;28;20048;-58
2022/12/05 06:22:01;;;;;;;19.20;13.30;;;8.60;77.80;;;;;;20938268;28;20049;-60
2022/12/05 06:32:04;;;;;;;19.08;12.20;;;8.60;77.50;;;;;;20939644;28;20497;-60
2022/12/05 06:42:08;;;;;;;18.93;12.03;;;8.70;78.00;;;;;;20939509;28;20072;-60
2022/12/05 06:52:10;;;;;;;23.58;13.70;;;8.60;79.00;;;;;;20939899;28;20139;-59
2022/12/05 07:02:12;;;;;;;20.38;12.65;;;8.40;79.50;;;;;;20938836;28;20049;-60
2022/12/05 07:12:17;;;;;;;20.77;13.25;;;8.50;80.00;;;;;;20938994;28;20413;-59
2022/12/05 07:22:20;;;;;;;;;;;8.50;80.50;;;;;;20939452;28;20523;-58
2022/12/05 07:32:22;;;;;;;16.98;11.55;;;8.40;80.70;;;;;;20926623;28;19921;-59
2022/12/05 07:42:24;;;;;;;17.80;11.80;;;8.40;81.30;;;;;;20924296;28;20049;-60
2022/12/05 07:52:27;;;;;;;17.85;11.65;;;8.40;81.60;;;;;;20923372;28;20056;-58
2022/12/05 08:02:28;;;;;;;14.90;9.95;;;8.40;82.20;;;;;;20921706;28;20045;-62
2022/12/05 08:12:30;;;;;;;15.27;10.63;;;8.60;81.60;;;;;;20920915;28;20049;-60
2022/12/05 08:22:32;;;;;;;15.73;10.48;;;8.60;81.60;;;;;;20920243;28;20049;-61
2022/12/05 08:32:34;;;;;;;17.00;11.10;;;8.60;81.40;;;;;;20918807;28;20095;-58
2022/12/05 08:42:36;;;;;;;14.38;9.48;;;8.60;81.80;;;;;;20918271;28;20132;-59
2022/12/05 08:52:38;;;;;;;13.45;9.75;;;8.70;81.50;;;;;;20918314;28;20413;-61
2022/12/05 09:02:40;;;;;;;14.05;10.25;;;8.70;81.40;;;;;;20900499;28;20110;-65
2022/12/05 09:12:41;;;;;;;15.30;9.90;;;8.80;80.70;;;;;;20918460;28;20056;-60
2022/12/05 09:22:43;;;;;;;13.73;10.13;;;8.80;80.60;;;;;;20916334;28;20049;-59
2022/12/05 09:32:45;;;;;;;14.23;10.10;;;8.80;81.10;;;;;;20915043;28;20598;-61
2022/12/05 09:43:05;;;;;;;18.70;10.15;;;8.90;81.10;;;;;;20914387;28;20053;-62
2022/12/05 09:53:30;;;;;;;17.20;10.13;;;8.80;81.80;;;;;;20913407;28;20416;-60
2022/12/05 10:03:46;;;;;;;17.43;11.03;;;8.90;82.40;;;;;;20659466;28;20549;-60
2022/12/05 10:14:17;;;;;;;15.75;9.98;;;9.00;82.60;;;;;;20658819;28;20129;-60
2022/12/05 10:24:37;;;;;;;16.27;9.93;;;9.00;82.30;;;;;;20652406;28;20077;-61
2022/12/05 10:34:42;;;;;;;16.85;10.07;;;9.10;82.70;;;;;;20732346;28;20079;-58
2022/12/05 10:44:44;;;;;;;13.60;8.93;;;9.20;82.50;;;;;;20979978;28;20056;-62
2022/12/05 10:54:53;;;;;;;15.02;11.35;;;11.00;74.60;;;;;;20992361;28;20049;-62
2022/12/05 11:04:57;;;;;;;15.95;11.50;;;11.30;73.90;;;;;;20995798;28;20036;-62
2022/12/05 11:15:21;;;;;;;19.52;12.40;;;10.20;78.70;;;;;;20981820;28;20400;-64
2022/12/05 11:25:29;;;;;;;16.60;12.73;;;9.90;80.80;;;;;;21004878;28;20119;-65
2022/12/05 11:35:31;;;;;;;20.23;12.10;;;9.80;81.70;;;;;;21005436;28;20053;-65
2022/12/05 11:45:45;;;;;;;21.45;13.23;;;10.50;79.80;;;;;;21007341;28;20048;-60
2022/12/05 11:55:52;;;;;;;18.83;12.98;;;10.00;81.70;;;;;;21006389;28;20059;-62
2022/12/05 12:06:05;;;;;;;18.80;12.45;;;10.00;82.10;;;;;;21004307;28;20044;-62
2022/12/05 12:16:21;;;;;;;18.67;14.05;;;10.00;82.70;;;;;;21000637;28;20059;-61
2022/12/05 12:26:59;;;;;;;21.80;13.90;;;10.00;82.70;;;;;;21001927;28;20053;-61
2022/12/05 12:37:18;;;;;;;20.75;14.48;;;10.00;83.50;;;;;;21002631;28;20408;-62
2022/12/05 12:47:23;;;;;;;20.73;15.88;;;10.10;83.60;;;;;;21000879;28;20049;-66
2022/12/05 12:57:48;;;;;;;20.13;14.27;;;10.00;84.10;;;;;;21001159;28;20503;-66
2022/12/05 13:08:28;;;;;;;17.73;13.03;;;10.20;84.30;;;;;;20647814;28;20038;-65
2022/12/05 13:18:30;;;;;;;23.30;15.57;;;10.20;84.00;;;;;;20423157;29;20078;-64
2022/12/05 13:28:34;;;;;;;19.77;15.18;;;10.20;84.60;;;;;;20421461;29;20083;-65
2022/12/05 13:49:22;;;;;;;22.40;15.50;;;10.20;85.00;;;;;;20917629;28;20052;-67
2022/12/05 14:00:06;;;;;;;17.95;15.27;;;10.30;85.20;;;;;;20997622;28;20048;-65
2022/12/05 14:10:10;;;;;;;17.00;13.63;;;10.40;85.20;;;;;;20996383;28;20060;-61
2022/12/05 14:20:22;;;;;;;19.17;12.80;;;10.50;85.30;;;;;;20996422;28;20076;-61
2022/12/05 14:30:43;;;;;;;18.95;14.55;;;10.60;85.30;;;;;;20995667;28;20483;-62
2022/12/05 14:40:46;;;;;;;21.17;14.95;;;10.70;85.30;;;;;;21006542;28;20122;-62
2022/12/05 14:50:53;;;;;;;17.88;13.63;;;10.70;85.20;;;;;;21011573;28;20056;-61
2022/12/05 15:00:58;;;;;;;21.42;15.25;;;10.70;85.30;;;;;;21010579;28;20044;-62
2022/12/05 15:11:01;;;;;;;21.33;16.08;;;10.70;85.50;;;;;;21009400;28;20471;-61
2022/12/05 15:21:12;;;;;;;24.02;16.20;;;10.80;85.70;;;;;;21008830;28;20048;-61
2022/12/05 15:31:15;;;;;;;24.38;16.27;;;10.80;85.90;;;;;;21007410;28;20056;-68
2022/12/05 15:41:16;;;;;;;30.15;21.50;;;10.80;85.90;;;;;;21007197;28;20048;-61
2022/12/05 15:51:21;;;;;;;21.85;16.52;;;10.90;85.90;;;;;;21023604;28;20059;-61
2022/12/05 16:01:24;;;;;;;30.83;20.50;;;10.90;86.00;;;;;;21013635;28;20084;-61
2022/12/05 16:11:27;;;;;;;31.60;19.13;;;11.00;85.90;;;;;;21004775;28;20056;-65
2022/12/05 16:21:35;;;;;;;26.42;19.23;;;11.10;86.00;;;;;;21004605;28;20040;-64
2022/12/05 16:31:38;;;;;;;30.15;18.05;;;11.10;86.10;;;;;;21002315;28;20056;-63
2022/12/05 16:41:40;;;;;;;23.98;16.08;;;11.10;86.10;;;;;;21000355;28;20049;-61
2022/12/05 16:52:13;;;;;;;28.00;19.73;;;11.10;86.00;;;;;;20996201;28;20048;-65
2022/12/05 17:02:17;;;;;;;32.40;21.23;;;11.40;84.00;;;;;;20993869;28;20083;-63
2022/12/05 17:12:23;;;;;;;30.47;19.30;;;11.50;84.30;;;;;;20990265;28;20480;-61
2022/12/05 17:22:27;;;;;;;26.00;16.85;;;11.30;84.80;;;;;;20999857;28;20049;-61
2022/12/05 17:32:28;;;;;;;29.02;19.70;;;11.30;85.30;;;;;;20997721;28;20088;-62
2022/12/05 17:42:30;;;;;;;29.52;19.65;;;11.20;85.50;;;;;;20997785;28;20045;-61
2022/12/05 17:52:32;;;;;;;29.42;19.73;;;11.20;85.80;;;;;;20997840;28;20477;-60
2022/12/05 18:02:34;;;;;;;33.00;19.77;;;11.20;86.10;;;;;;20996490;28;20056;-59
2022/12/05 18:12:36;;;;;;;31.80;20.20;;;11.20;86.20;;;;;;20996306;28;20048;-59
2022/12/05 18:22:39;;;;;;;28.05;19.00;;;11.20;86.40;;;;;;20996541;28;20128;-62
2022/12/05 18:32:40;;;;;;;32.90;19.77;;;11.20;86.60;;;;;;20994784;28;20067;-61
2022/12/05 18:42:42;;;;;;;25.58;17.92;;;11.20;86.60;;;;;;20995260;28;20105;-63
2022/12/05 18:52:44;;;;;;;32.40;20.63;;;11.20;86.70;;;;;;20994455;28;20080;-60
2022/12/05 19:02:47;;;;;;;28.95;19.05;;;11.20;86.60;;;;;;20994380;28;20403;-61
2022/12/05 19:12:48;;;;;;;28.92;19.98;;;11.20;86.70;;;;;;20994012;28;20048;-61
2022/12/05 19:22:50;;;;;;;21.67;15.70;;;11.30;86.60;;;;;;20997044;28;20411;-59
2022/12/05 19:32:52;;;;;;;25.80;18.15;;;11.30;86.40;;;;;;21009980;28;20052;-61
2022/12/05 19:42:54;;;;;;;25.80;17.55;;;11.30;86.40;;;;;;21008080;28;20131;-61
2022/12/05 19:52:56;;;;;;;23.65;16.75;;;11.30;86.40;;;;;;21005869;28;20058;-60
2022/12/05 20:02:58;;;;;;;26.48;18.00;;;11.40;86.30;;;;;;21005053;28;20044;-61
2022/12/05 20:12:59;;;;;;;24.90;17.17;;;11.40;86.20;;;;;;21005050;28;20563;-59
2022/12/05 20:23:01;;;;;;;25.77;18.83;;;11.40;86.20;;;;;;21004454;28;20492;-61
2022/12/05 20:33:02;;;;;;;24.23;17.63;;;11.30;86.20;;;;;;21001792;28;20060;-61
2022/12/05 20:43:04;;;;;;;30.17;20.27;;;11.30;86.30;;;;;;21002099;28;20060;-60
2022/12/05 20:53:06;;;;;;;30.65;20.90;;;11.30;86.20;;;;;;21001075;28;20048;-61
2022/12/05 21:03:10;;;;;;;28.52;19.45;;;11.30;86.30;;;;;;21000200;28;20059;-61
2022/12/05 21:13:12;;;;;;;29.95;19.40;;;11.40;86.30;;;;;;21000050;28;20055;-60
2022/12/05 21:23:14;;;;;;;30.10;18.85;;;11.40;86.30;;;;;;20999059;28;20064;-61
2022/12/05 21:33:15;;;;;;;28.85;17.83;;;11.40;86.30;;;;;;20997039;28;20140;-61
2022/12/05 21:43:17;;;;;;;34.63;19.90;;;11.40;86.40;;;;;;20996914;28;20048;-61
2022/12/05 21:53:20;;;;;;;33.55;21.73;;;11.40;86.40;;;;;;20996958;28;20052;-59
2022/12/05 22:03:22;;;;;;;27.10;18.52;;;11.40;86.40;;;;;;20996253;28;20053;-62
2022/12/05 22:13:24;;;;;;;27.67;19.48;;;11.30;86.40;;;;;;20995064;28;20099;-61
2022/12/05 22:23:26;;;;;;;23.30;16.13;;;11.30;86.30;;;;;;20995255;28;20481;-61
2022/12/05 22:33:28;;;;;;;23.77;14.60;;;11.30;86.20;;;;;;20993598;28;20061;-61
2022/12/05 22:43:31;;;;;;;28.23;14.73;;;11.30;85.90;;;;;;20994703;28;20090;-60
2022/12/05 22:53:33;;;;;;;22.55;13.35;;;11.30;85.80;;;;;;20993899;28;20045;-62
2022/12/05 23:03:35;;;;;;;24.98;14.27;;;11.30;85.40;;;;;;21007981;28;20549;-61
2022/12/05 23:13:37;;;;;;;28.88;17.45;;;11.30;85.40;;;;;;21009583;28;20092;-62
2022/12/05 23:23:39;;;;;;;22.73;15.63;;;11.30;85.30;;;;;;21008914;28;20049;-61
2022/12/05 23:33:41;;;;;;;24.17;14.40;;;11.30;85.30;;;;;;21007352;28;20049;-60
2022/12/05 23:43:44;;;;;;;26.17;18.23;;;11.30;85.30;;;;;;21007209;28;20064;-59
2022/12/05 23:53:46;;;;;;;28.67;17.25;;;11.30;85.20;;;;;;21006331;28;20413;-60
